createdAt,value
2018-05-02T00:02:14.096Z,42.15
2018-05-02T00:04:40.420Z,42.05
2018-05-02T00:07:06.835Z,42.05
2018-05-02T00:09:33.283Z,42.02
2018-05-02T00:11:59.641Z,41.96
2018-05-02T00:14:26.005Z,42.00
2018-05-02T00:16:52.383Z,41.92
2018-05-02T00:19:18.727Z,42.02
2018-05-02T00:21:45.077Z,42.12
2018-05-02T00:24:11.487Z,42.00
2018-05-02T00:26:37.800Z,42.04
2018-05-02T00:29:04.172Z,42.04
2018-05-02T00:31:30.609Z,41.88
2018-05-02T00:33:57.057Z,41.92
2018-05-02T00:36:28.729Z,41.84
2018-05-02T00:38:55.109Z,41.81
2018-05-02T00:41:21.428Z,41.76
2018-05-02T00:43:47.826Z,41.73
2018-05-02T00:46:14.196Z,41.70
2018-05-02T00:48:40.566Z,41.66
2018-05-02T00:51:07.010Z,41.81
2018-05-02T00:53:33.407Z,41.66
2018-05-02T00:55:59.792Z,41.63
2018-05-02T00:58:26.108Z,41.71
2018-05-02T01:00:52.431Z,41.70
2018-05-02T01:03:18.860Z,41.05
2018-05-02T01:05:45.195Z,40.96
2018-05-02T01:08:11.566Z,40.93
2018-05-02T01:10:37.945Z,41.16
2018-05-02T01:13:04.473Z,41.16
2018-05-02T01:15:30.842Z,41.18
2018-05-02T01:17:57.192Z,41.57
2018-05-02T01:20:23.529Z,41.66
2018-05-02T01:22:50.218Z,41.45
2018-05-02T01:25:16.576Z,41.35
2018-05-02T01:27:42.924Z,41.17
2018-05-02T01:30:09.293Z,41.37
2018-05-02T01:32:35.689Z,41.32
2018-05-02T01:35:02.018Z,41.18
2018-05-02T01:37:28.390Z,41.09
2018-05-02T01:39:54.736Z,41.11
2018-05-02T01:42:21.124Z,40.84
2018-05-02T01:44:47.489Z,41.05
2018-05-02T01:47:13.833Z,41.08
2018-05-02T01:49:40.193Z,40.85
2018-05-02T01:52:06.564Z,40.94
2018-05-02T01:54:32.938Z,40.79
2018-05-02T01:56:59.252Z,41.01
2018-05-02T01:59:25.615Z,40.78
2018-05-02T02:01:52.015Z,40.83
2018-05-02T02:04:18.438Z,40.88
2018-05-02T02:06:44.755Z,40.53
2018-05-02T02:09:11.138Z,40.63
2018-05-02T02:11:37.476Z,40.66
2018-05-02T02:14:04.052Z,40.59
2018-05-02T02:16:30.425Z,40.57
2018-05-02T02:18:56.738Z,40.41
2018-05-02T02:21:23.109Z,40.47
2018-05-02T02:23:49.641Z,40.46
2018-05-02T02:26:16.077Z,40.37
2018-05-02T02:28:42.475Z,40.45
2018-05-02T02:31:08.842Z,40.30
2018-05-02T02:33:35.309Z,40.33
2018-05-02T02:36:01.657Z,40.60
2018-05-02T02:38:28.021Z,40.38
2018-05-02T02:40:54.396Z,40.20
2018-05-02T02:43:20.810Z,40.43
2018-05-02T02:45:47.197Z,40.44
2018-05-02T02:48:13.718Z,40.66
2018-05-02T02:50:40.056Z,40.60
2018-05-02T02:53:06.435Z,40.51
2018-05-02T02:55:32.759Z,40.49
2018-05-02T02:57:59.179Z,40.52
2018-05-02T03:00:25.567Z,40.58
2018-05-02T03:02:51.955Z,40.41
2018-05-02T03:05:18.324Z,40.36
2018-05-02T03:07:44.753Z,40.39
2018-05-02T03:10:11.140Z,40.35
2018-05-02T03:12:37.534Z,40.19
2018-05-02T03:15:04.198Z,40.29
2018-05-02T03:17:30.603Z,40.26
2018-05-02T03:19:56.997Z,40.52
2018-05-02T03:22:23.381Z,40.37
2018-05-02T03:24:49.830Z,40.31
2018-05-02T03:27:16.203Z,40.28
2018-05-02T03:29:42.574Z,40.43
2018-05-02T03:32:08.939Z,40.54
2018-05-02T03:34:35.296Z,40.46
2018-05-02T03:37:01.700Z,40.37
2018-05-02T03:39:28.067Z,40.34
2018-05-02T03:41:54.511Z,40.38
2018-05-02T03:44:20.940Z,40.27
2018-05-02T03:46:47.259Z,40.38
2018-05-02T03:49:13.596Z,40.33
2018-05-02T03:51:39.944Z,40.18
2018-05-02T03:54:06.313Z,40.38
2018-05-02T03:56:32.705Z,40.14
2018-05-02T03:58:59.086Z,39.99
2018-05-02T04:01:25.491Z,40.08
2018-05-02T04:03:51.821Z,39.95
2018-05-02T04:06:18.146Z,40.02
2018-05-02T04:08:44.579Z,39.82
2018-05-02T04:11:10.903Z,39.60
2018-05-02T04:13:37.373Z,39.23
2018-05-02T04:16:03.719Z,38.80
2018-05-02T04:18:30.088Z,38.72
2018-05-02T04:20:56.559Z,38.92
2018-05-02T04:23:22.925Z,38.79
2018-05-02T04:25:49.332Z,38.65
2018-05-02T04:28:15.685Z,38.88
2018-05-02T04:30:42.060Z,39.05
2018-05-02T04:33:08.391Z,39.11
2018-05-02T04:35:34.708Z,39.06
2018-05-02T04:38:01.075Z,39.05
2018-05-02T04:40:27.409Z,38.80
2018-05-02T04:42:53.771Z,38.73
2018-05-02T04:45:20.248Z,38.61
2018-05-02T04:47:46.648Z,38.66
2018-05-02T04:50:13.008Z,38.49
2018-05-02T04:52:39.422Z,38.47
2018-05-02T04:55:05.773Z,38.46
2018-05-02T04:57:32.101Z,38.58
2018-05-02T04:59:58.460Z,38.59
2018-05-02T05:02:24.847Z,38.36
2018-05-02T05:04:51.269Z,38.52
2018-05-02T05:07:17.764Z,38.58
2018-05-02T05:09:44.257Z,38.58
2018-05-02T05:12:10.693Z,38.57
2018-05-02T05:14:37.164Z,38.62
2018-05-02T05:17:03.714Z,38.51
2018-05-02T05:19:30.061Z,38.37
2018-05-02T05:21:56.418Z,38.45
2018-05-02T05:24:22.868Z,38.31
2018-05-02T05:26:50.201Z,38.43
2018-05-02T05:29:16.576Z,38.51
2018-05-02T05:31:42.964Z,38.21
2018-05-02T05:34:09.331Z,38.49
2018-05-02T05:36:35.698Z,38.48
2018-05-02T05:39:02.071Z,38.55
2018-05-02T05:41:28.426Z,38.45
2018-05-02T05:43:54.771Z,38.35
2018-05-02T05:46:21.201Z,38.30
2018-05-02T05:48:47.641Z,38.21
2018-05-02T05:51:14.062Z,38.34
2018-05-02T05:53:40.396Z,38.44
2018-05-02T05:56:06.849Z,38.22
2018-05-02T05:58:33.217Z,38.42
2018-05-02T06:00:59.595Z,38.29
2018-05-02T06:03:25.984Z,38.13
2018-05-02T06:05:52.507Z,38.15
2018-05-02T06:08:19.017Z,38.43
2018-05-02T06:10:45.431Z,38.52
2018-05-02T06:13:11.812Z,38.38
2018-05-02T06:15:38.567Z,38.29
2018-05-02T06:18:05.035Z,38.35
2018-05-02T06:20:31.505Z,38.32
2018-05-02T06:22:58.063Z,38.33
2018-05-02T06:25:24.536Z,38.27
2018-05-02T06:27:51.409Z,38.13
2018-05-02T06:30:18.062Z,38.05
2018-05-02T06:32:44.989Z,38.09
2018-05-02T06:35:11.478Z,38.11
2018-05-02T06:37:37.909Z,38.15
2018-05-02T06:40:04.337Z,38.15
2018-05-02T06:42:30.757Z,38.20
2018-05-02T06:44:57.923Z,38.32
2018-05-02T06:47:24.842Z,38.37
2018-05-02T06:49:51.523Z,37.82
2018-05-02T06:52:18.557Z,37.94
2018-05-02T06:54:45.482Z,38.40
2018-05-02T06:57:12.366Z,38.44
2018-05-02T06:59:38.957Z,38.31
2018-05-02T07:02:05.580Z,38.54
2018-05-02T07:04:31.945Z,38.50
2018-05-02T07:06:58.409Z,38.12
2018-05-02T07:09:24.944Z,38.30
2018-05-02T07:11:51.400Z,38.39
2018-05-02T07:14:17.816Z,38.34
2018-05-02T07:16:44.254Z,38.40
2018-05-02T07:19:10.640Z,38.48
2018-05-02T07:24:13.121Z,38.26
2018-05-02T07:26:40.323Z,38.19
2018-05-02T07:29:07.178Z,37.75
2018-05-02T07:31:34.151Z,37.91
2018-05-02T07:34:00.786Z,38.01
2018-05-02T07:36:27.701Z,38.13
2018-05-02T07:38:54.395Z,38.04
2018-05-02T07:41:20.893Z,37.96
2018-05-02T07:43:48.055Z,37.94
2018-05-02T07:46:15.064Z,38.00
2018-05-02T07:48:42.621Z,38.12
2018-05-02T07:51:09.159Z,38.11
2018-05-02T07:53:35.714Z,38.02
2018-05-02T07:56:02.309Z,37.82
2018-05-02T07:58:28.841Z,37.77
2018-05-02T08:00:55.665Z,37.76
2018-05-02T08:03:22.231Z,37.53
2018-05-02T08:05:48.974Z,37.76
2018-05-02T08:08:16.585Z,37.73
2018-05-02T08:10:44.070Z,37.98
2018-05-02T08:13:11.956Z,38.07
2018-05-02T08:15:39.829Z,37.90
2018-05-02T08:18:06.687Z,37.99
2018-05-02T08:20:38.478Z,37.92
2018-05-02T08:23:05.709Z,37.95
2018-05-02T08:25:32.221Z,37.88
2018-05-02T08:27:58.827Z,37.94
2018-05-02T08:30:25.727Z,37.73
2018-05-02T08:32:52.428Z,37.59
2018-05-02T08:35:19.228Z,37.65
2018-05-02T08:37:45.762Z,37.55
2018-05-02T08:40:13.643Z,37.47
2018-05-02T08:42:40.355Z,37.66
2018-05-02T08:45:09.257Z,37.53
2018-05-02T08:47:36.325Z,37.58
2018-05-02T08:50:08.068Z,37.39
2018-05-02T08:52:34.910Z,37.43
2018-05-02T08:55:01.804Z,37.49
2018-05-02T08:57:28.829Z,37.37
2018-05-02T08:59:55.719Z,37.70
2018-05-02T09:02:22.764Z,38.17
2018-05-02T09:04:49.520Z,38.27
2018-05-02T09:07:16.036Z,38.38
2018-05-02T09:09:43.505Z,38.19
2018-05-02T09:12:09.848Z,38.24
2018-05-02T09:14:36.335Z,38.35
2018-05-02T09:17:03.105Z,38.09
2018-05-02T09:19:29.487Z,38.16
2018-05-02T09:21:56.869Z,37.88
2018-05-02T09:24:23.645Z,37.70
2018-05-02T09:26:50.287Z,37.51
2018-05-02T09:29:16.904Z,37.62
2018-05-02T09:31:43.393Z,37.66
2018-05-02T09:34:09.825Z,37.42
2018-05-02T09:36:36.264Z,37.69
2018-05-02T09:39:02.772Z,37.38
2018-05-02T09:41:29.193Z,37.35
2018-05-02T09:43:55.598Z,37.07
2018-05-02T09:46:21.971Z,37.14
2018-05-02T09:48:48.373Z,37.08
2018-05-02T09:51:14.768Z,37.02
2018-05-02T09:53:41.171Z,37.07
2018-05-02T09:56:08.187Z,36.69
2018-05-02T09:58:35.280Z,36.85
2018-05-02T10:01:02.647Z,36.78
2018-05-02T10:03:29.827Z,36.77
2018-05-02T10:05:56.562Z,36.65
2018-05-02T10:08:23.522Z,36.67
2018-05-02T10:10:50.594Z,36.57
2018-05-02T10:13:17.635Z,36.43
2018-05-02T10:15:44.151Z,36.66
2018-05-02T10:18:10.977Z,36.51
2018-05-02T10:20:37.831Z,36.31
2018-05-02T10:23:04.290Z,36.31
2018-05-02T10:25:30.756Z,36.17
2018-05-02T10:27:57.499Z,36.29
2018-05-02T10:30:24.125Z,36.04
2018-05-02T10:32:50.758Z,36.04
2018-05-02T10:35:17.110Z,35.93
2018-05-02T10:37:43.612Z,36.13
2018-05-02T10:40:10.173Z,35.89
2018-05-02T10:42:36.807Z,36.01
2018-05-02T10:45:03.266Z,35.66
2018-05-02T10:47:29.680Z,35.86
2018-05-02T10:49:56.123Z,35.90
2018-05-02T10:52:22.554Z,35.84
2018-05-02T10:54:48.993Z,35.55
2018-05-02T10:57:15.397Z,35.23
2018-05-02T10:59:41.835Z,35.52
2018-05-02T11:02:08.220Z,35.55
2018-05-02T11:04:34.742Z,35.10
2018-05-02T11:07:01.080Z,35.14
2018-05-02T11:09:27.537Z,35.32
2018-05-02T11:11:54.008Z,34.92
2018-05-02T11:14:20.654Z,34.87
2018-05-02T11:16:47.398Z,34.90
2018-05-02T11:19:13.900Z,34.82
2018-05-02T11:21:40.305Z,34.98
2018-05-02T11:24:06.777Z,34.95
2018-05-02T11:26:33.164Z,34.79
2018-05-02T11:28:59.690Z,34.64
2018-05-02T11:31:26.080Z,34.38
2018-05-02T11:33:52.546Z,34.50
2018-05-02T11:36:19.024Z,34.56
2018-05-02T11:38:45.526Z,34.57
2018-05-02T11:41:12.222Z,34.46
2018-05-02T11:43:38.635Z,34.61
2018-05-02T11:46:05.433Z,34.44
2018-05-02T11:48:31.830Z,34.46
2018-05-02T11:50:58.358Z,34.53
2018-05-02T11:53:25.359Z,34.48
2018-05-02T11:55:51.963Z,34.59
2018-05-02T11:58:18.352Z,34.63
2018-05-02T12:00:45.058Z,34.66
2018-05-02T12:03:11.443Z,34.58
2018-05-02T12:05:38.410Z,34.61
2018-05-02T12:08:04.842Z,34.51
2018-05-02T12:10:31.265Z,34.42
2018-05-02T12:12:57.641Z,34.33
2018-05-02T12:15:24.090Z,34.36
2018-05-02T12:17:50.617Z,34.27
2018-05-02T12:20:17.406Z,34.29
2018-05-02T12:22:43.811Z,34.13
2018-05-02T12:25:10.170Z,34.33
2018-05-02T12:27:36.615Z,34.18
2018-05-02T12:30:03.012Z,34.18
2018-05-02T12:32:29.456Z,33.97
2018-05-02T12:34:56.590Z,33.95
2018-05-02T12:37:23.024Z,34.07
2018-05-02T12:39:49.405Z,34.01
2018-05-02T12:42:15.854Z,33.56
2018-05-02T12:44:42.685Z,33.68
2018-05-02T12:47:09.416Z,33.49
2018-05-02T12:49:35.882Z,33.27
2018-05-02T12:52:02.464Z,33.42
2018-05-02T12:54:28.871Z,33.22
2018-05-02T12:56:55.790Z,32.79
2018-05-02T12:59:24.242Z,33.04
2018-05-02T13:01:51.336Z,32.46
2018-05-02T13:04:18.259Z,32.63
2018-05-02T13:06:45.179Z,32.40
2018-05-02T13:09:11.930Z,32.40
2018-05-02T13:11:38.783Z,32.09
2018-05-02T13:14:05.613Z,32.05
2018-05-02T13:16:32.353Z,32.09
2018-05-02T13:18:59.053Z,31.99
2018-05-02T13:21:25.773Z,32.05
2018-05-02T13:23:53.027Z,31.82
2018-05-02T13:26:20.204Z,32.16
2018-05-02T13:28:46.825Z,31.80
2018-05-02T13:31:13.325Z,31.62
2018-05-02T13:33:39.957Z,31.73
2018-05-02T13:36:09.177Z,31.82
2018-05-02T13:38:36.214Z,31.41
2018-05-02T13:41:03.072Z,31.40
2018-05-02T13:43:29.581Z,31.24
2018-05-02T13:45:56.607Z,31.25
2018-05-02T13:48:23.075Z,31.28
2018-05-02T13:50:50.305Z,31.20
2018-05-02T13:53:16.842Z,31.22
2018-05-02T13:55:43.440Z,31.25
2018-05-02T13:58:10.423Z,31.24
2018-05-02T14:00:37.350Z,31.13
2018-05-02T14:03:04.369Z,31.24
2018-05-02T14:05:31.602Z,31.29
2018-05-02T14:07:58.503Z,31.47
2018-05-02T14:10:25.311Z,31.51
2018-05-02T14:12:52.091Z,31.65
2018-05-02T14:15:19.105Z,31.58
2018-05-02T14:17:45.572Z,31.71
2018-05-02T14:20:12.175Z,31.78
2018-05-02T14:22:38.843Z,31.92
2018-05-02T14:25:05.854Z,32.08
2018-05-02T14:27:32.640Z,32.12
2018-05-02T14:29:59.140Z,32.21
2018-05-02T14:32:26.472Z,32.27
2018-05-02T14:34:53.116Z,32.37
2018-05-02T14:37:19.520Z,32.48
2018-05-02T14:39:47.574Z,32.60
2018-05-02T14:42:14.192Z,32.61
2018-05-02T14:44:40.886Z,32.69
2018-05-02T14:47:07.572Z,32.78
2018-05-02T14:49:34.151Z,32.79
2018-05-02T14:52:00.627Z,32.83
2018-05-02T14:54:28.129Z,32.96
2018-05-02T14:56:54.597Z,33.02
2018-05-02T14:59:21.244Z,33.04
2018-05-02T15:01:47.643Z,33.02
2018-05-02T15:04:14.125Z,33.03
2018-05-02T15:06:40.642Z,33.11
2018-05-02T15:09:07.076Z,33.18
2018-05-02T15:11:33.788Z,33.28
2018-05-02T15:14:00.139Z,33.22
2018-05-02T15:16:26.520Z,33.12
2018-05-02T15:18:52.912Z,33.16
2018-05-02T15:21:19.811Z,33.12
2018-05-02T15:23:46.233Z,33.16
2018-05-02T15:26:12.601Z,33.21
2018-05-02T15:28:39.008Z,33.14
2018-05-02T15:31:05.593Z,33.23
2018-05-02T15:33:31.924Z,33.25
2018-05-02T15:35:58.368Z,33.20
2018-05-02T15:38:24.827Z,33.21
2018-05-02T15:40:51.470Z,33.22
2018-05-02T15:43:17.871Z,33.16
2018-05-02T15:45:44.357Z,33.04
2018-05-02T15:48:10.735Z,33.00
2018-05-02T15:50:37.778Z,32.82
2018-05-02T15:53:04.213Z,32.75
2018-05-02T15:55:30.629Z,32.68
2018-05-02T15:57:57.032Z,32.68
2018-05-02T16:00:23.496Z,32.64
2018-05-02T16:02:49.827Z,32.45
2018-05-02T16:05:16.286Z,32.54
2018-05-02T16:07:42.620Z,32.49
2018-05-02T16:10:09.017Z,32.37
2018-05-02T16:12:35.524Z,32.51
2018-05-02T16:15:01.863Z,32.49
2018-05-02T16:17:28.248Z,32.53
2018-05-02T16:19:54.591Z,32.34
2018-05-02T16:22:20.953Z,32.49
2018-05-02T16:24:47.289Z,32.48
2018-05-02T16:27:13.738Z,32.54
2018-05-02T16:29:40.069Z,32.59
2018-05-02T16:32:06.664Z,32.59
2018-05-02T16:34:33.098Z,32.55
2018-05-02T16:36:59.499Z,32.57
2018-05-02T16:39:25.921Z,32.48
2018-05-02T16:41:52.247Z,32.45
2018-05-02T16:44:18.749Z,32.55
2018-05-02T16:46:45.142Z,32.55
2018-05-02T16:49:11.459Z,32.60
2018-05-02T16:51:37.888Z,32.66
2018-05-02T16:54:04.335Z,32.57
2018-05-02T16:56:30.681Z,32.62
2018-05-02T16:58:57.224Z,32.76
2018-05-02T17:01:23.571Z,32.69
2018-05-02T17:03:49.933Z,32.81
2018-05-02T17:06:16.391Z,32.74
2018-05-02T17:08:42.896Z,32.56
2018-05-02T17:11:09.335Z,32.45
2018-05-02T17:13:35.768Z,32.45
2018-05-02T17:16:02.094Z,32.20
2018-05-02T17:18:28.654Z,32.05
2018-05-02T17:20:54.985Z,31.98
2018-05-02T17:23:21.470Z,32.20
2018-05-02T17:25:47.798Z,32.10
2018-05-02T17:28:14.218Z,32.28
2018-05-02T17:30:40.576Z,32.36
2018-05-02T17:33:06.932Z,32.29
2018-05-02T17:35:33.293Z,32.19
2018-05-02T17:37:59.700Z,32.20
2018-05-02T17:40:26.124Z,32.11
2018-05-02T17:42:52.489Z,31.83
2018-05-02T17:45:18.944Z,31.90
2018-05-02T17:47:45.388Z,32.07
2018-05-02T17:50:11.773Z,32.13
2018-05-02T17:52:38.374Z,31.95
2018-05-02T17:55:04.900Z,32.05
2018-05-02T17:57:31.269Z,32.20
2018-05-02T17:59:57.591Z,32.20
2018-05-02T18:02:23.909Z,32.16
2018-05-02T18:04:50.336Z,32.28
2018-05-02T18:07:16.718Z,32.06
2018-05-02T18:09:43.065Z,32.07
2018-05-02T18:12:09.388Z,32.27
2018-05-02T18:14:35.744Z,32.38
2018-05-02T18:17:02.396Z,32.40
2018-05-02T18:19:28.737Z,32.41
2018-05-02T18:21:55.173Z,32.48
2018-05-02T18:24:21.533Z,32.56
2018-05-02T18:26:47.860Z,32.60
2018-05-02T18:29:14.271Z,32.66
2018-05-02T18:31:40.615Z,32.68
2018-05-02T18:34:07.015Z,32.70
2018-05-02T18:36:33.385Z,32.71
2018-05-02T18:38:59.692Z,32.77
2018-05-02T18:41:26.061Z,32.79
2018-05-02T18:43:52.383Z,32.53
2018-05-02T18:46:18.752Z,32.58
2018-05-02T18:48:45.077Z,32.54
2018-05-02T18:51:11.440Z,32.52
2018-05-02T18:53:37.770Z,32.54
2018-05-02T18:56:04.149Z,32.38
2018-05-02T18:58:30.531Z,32.41
2018-05-02T19:00:56.828Z,32.41
2018-05-02T19:03:23.208Z,32.32
2018-05-02T19:05:49.544Z,32.37
2018-05-02T19:08:15.866Z,32.58
2018-05-02T19:10:42.192Z,32.47
2018-05-02T19:13:08.558Z,32.58
2018-05-02T19:15:35.004Z,32.70
2018-05-02T19:18:01.324Z,32.69
2018-05-02T19:20:27.706Z,32.72
2018-05-02T19:22:54.098Z,32.73
2018-05-02T19:25:20.412Z,32.97
2018-05-02T19:27:46.773Z,32.96
2018-05-02T19:30:13.089Z,32.92
2018-05-02T19:32:39.478Z,32.85
2018-05-02T19:35:05.906Z,33.00
2018-05-02T19:37:32.223Z,33.15
2018-05-02T19:40:00.355Z,33.05
2018-05-02T19:42:26.743Z,33.20
2018-05-02T19:44:53.318Z,33.26
2018-05-02T19:47:19.679Z,33.26
2018-05-02T19:49:46.016Z,33.14
2018-05-02T19:52:12.478Z,33.44
2018-05-02T19:54:38.849Z,33.28
2018-05-02T19:57:05.658Z,33.26
2018-05-02T19:59:31.944Z,33.27
2018-05-02T20:01:58.307Z,33.38
2018-05-02T20:04:24.659Z,33.39
2018-05-02T20:06:51.173Z,33.41
2018-05-02T20:09:17.504Z,33.41
2018-05-02T20:11:43.948Z,33.38
2018-05-02T20:14:10.388Z,33.37
2018-05-02T20:16:36.754Z,33.45
2018-05-02T20:19:03.173Z,33.39
2018-05-02T20:21:29.897Z,33.49
2018-05-02T20:23:56.362Z,33.70
2018-05-02T20:26:22.767Z,33.63
2018-05-02T20:28:49.396Z,33.78
2018-05-02T20:31:15.770Z,33.75
2018-05-02T20:33:42.092Z,33.63
2018-05-02T20:36:08.502Z,33.65
2018-05-02T20:38:34.826Z,33.67
2018-05-02T20:41:01.217Z,33.71
2018-05-02T20:43:27.536Z,33.83
2018-05-02T20:45:53.865Z,33.85
2018-05-02T20:48:20.567Z,33.98
2018-05-02T20:50:46.949Z,33.97
2018-05-02T20:53:13.339Z,34.04
2018-05-02T20:55:39.654Z,33.92
2018-05-02T20:58:06.089Z,33.95
2018-05-02T21:00:32.474Z,33.96
2018-05-02T21:02:58.848Z,34.04
2018-05-02T21:05:25.191Z,34.03
2018-05-02T21:07:51.507Z,34.24
2018-05-02T21:10:17.837Z,34.18
2018-05-02T21:12:44.155Z,34.04
2018-05-02T21:15:10.535Z,34.10
2018-05-02T21:17:36.858Z,34.17
2018-05-02T21:20:03.248Z,34.09
2018-05-02T21:22:29.631Z,34.16
2018-05-02T21:24:56.018Z,34.37
2018-05-02T21:27:22.409Z,34.21
2018-05-02T21:29:48.732Z,34.30
2018-05-02T21:32:15.056Z,34.36
2018-05-02T21:34:41.385Z,34.49
2018-05-02T21:37:07.715Z,34.38
2018-05-02T21:39:34.109Z,34.38
2018-05-02T21:42:00.452Z,34.32
2018-05-02T21:44:26.815Z,34.44
2018-05-02T21:46:53.144Z,34.61
2018-05-02T21:49:19.534Z,34.46
2018-05-02T21:51:45.854Z,34.67
2018-05-02T21:54:12.248Z,34.46
2018-05-02T21:56:38.666Z,34.49
2018-05-02T21:59:04.975Z,34.63
2018-05-02T22:01:31.361Z,34.72
2018-05-02T22:03:57.699Z,34.79
2018-05-02T22:06:24.146Z,34.81
2018-05-02T22:08:50.552Z,34.81
2018-05-02T22:11:16.888Z,34.77
2018-05-02T22:13:43.239Z,34.89
2018-05-02T22:16:09.571Z,35.00
2018-05-02T22:18:35.941Z,35.01
2018-05-02T22:21:02.299Z,35.13
2018-05-02T22:23:28.905Z,35.07
2018-05-02T22:25:55.271Z,35.10
2018-05-02T22:28:21.618Z,35.19
2018-05-02T22:30:47.935Z,35.27
2018-05-02T22:33:14.276Z,35.28
2018-05-02T22:35:40.622Z,35.29
2018-05-02T22:38:07.261Z,35.42
2018-05-02T22:40:33.906Z,35.54
2018-05-02T22:43:00.271Z,35.48
2018-05-02T22:45:26.603Z,35.59
2018-05-02T22:47:52.926Z,35.71
2018-05-02T22:50:19.361Z,35.70
2018-05-02T22:52:45.897Z,35.70
2018-05-02T22:55:12.273Z,35.78
2018-05-02T22:57:38.612Z,35.75
2018-05-02T23:00:04.960Z,35.94
2018-05-02T23:02:31.426Z,35.89
2018-05-02T23:04:57.744Z,35.95
2018-05-02T23:07:24.191Z,35.93
2018-05-02T23:09:50.805Z,35.93
2018-05-02T23:12:17.461Z,36.02
2018-05-02T23:14:44.077Z,36.06
2018-05-02T23:17:10.760Z,36.01
2018-05-02T23:19:37.220Z,36.04
2018-05-02T23:22:03.543Z,36.04
2018-05-02T23:24:29.899Z,36.14
2018-05-02T23:26:56.306Z,36.27
2018-05-02T23:29:22.971Z,36.25
2018-05-02T23:31:49.392Z,36.30
2018-05-02T23:34:15.949Z,36.30
2018-05-02T23:36:42.302Z,36.37
2018-05-02T23:39:08.695Z,36.44
2018-05-02T23:41:35.063Z,36.46
2018-05-02T23:44:01.496Z,36.49
2018-05-02T23:46:27.860Z,36.37
2018-05-02T23:48:54.330Z,36.54
2018-05-02T23:51:20.843Z,36.59
2018-05-02T23:53:47.156Z,36.62
2018-05-02T23:56:13.681Z,36.65
2018-05-02T23:58:40.137Z,36.66
